SAS723 EFHK-ESSA
Flight info
| Callsign | SAS723 |
|---|---|
| Flight time | 0h 44m |
| Altitude | 34000 |
| Route | ADIVO Y365 POGOK DCT RUNGA N872 XILAN |
| Aircraft | A20N/M-SDE2E3FGHIRWXY/LB1 |
Departure
| Time | 2026-05-07 16:58 |
|---|---|
| Airport | Helsinki Vantaa Airport (EFHK) |
Arrival
| Time | 2026-05-07 17:43 |
|---|---|
| Airport | Stockholm-Arlanda Airport (ESSA) |
| Time | Latitude | Longitude | Altitude | Speed | Heading |
|---|---|---|---|---|---|
| 2026-05-07 16:37 | 60.31480 | 24.97401 | 189 ft | 0 kts | 243° |
| 2026-05-07 16:45 | 60.31486 | 24.97425 | 189 ft | 2 kts | 243° |
| 2026-05-07 16:45 | 60.31493 | 24.97452 | 189 ft | 2 kts | 245° |
| 2026-05-07 16:45 | 60.31496 | 24.97481 | 189 ft | 2 kts | 270° |
| 2026-05-07 16:45 | 60.31495 | 24.97512 | 189 ft | 2 kts | 289° |
| 2026-05-07 16:46 | 60.31488 | 24.97539 | 189 ft | 2 kts | 308° |
| 2026-05-07 16:46 | 60.31477 | 24.97560 | 188 ft | 1 kts | 327° |
| 2026-05-07 16:46 | 60.31471 | 24.97567 | 188 ft | 1 kts | 335° |
| 2026-05-07 16:46 | 60.31469 | 24.97570 | 188 ft | 0 kts | 333° |
| 2026-05-07 16:49 | 60.31474 | 24.97564 | 188 ft | 3 kts | 332° |
| 2026-05-07 16:50 | 60.31518 | 24.97512 | 189 ft | 11 kts | 328° |
| 2026-05-07 16:50 | 60.31595 | 24.97427 | 191 ft | 14 kts | 333° |
| 2026-05-07 16:50 | 60.31686 | 24.97335 | 192 ft | 14 kts | 333° |
| 2026-05-07 16:50 | 60.31780 | 24.97239 | 191 ft | 16 kts | 333° |
| 2026-05-07 16:51 | 60.31889 | 24.97129 | 187 ft | 18 kts | 332° |
| 2026-05-07 16:51 | 60.32013 | 24.97000 | 182 ft | 21 kts | 332° |
| 2026-05-07 16:51 | 60.32147 | 24.96846 | 177 ft | 23 kts | 329° |
| 2026-05-07 16:51 | 60.32233 | 24.96748 | 177 ft | 10 kts | 329° |
| 2026-05-07 16:52 | 60.32296 | 24.96672 | 177 ft | 10 kts | 329° |
| 2026-05-07 16:52 | 60.32341 | 24.96617 | 178 ft | 6 kts | 329° |
| 2026-05-07 16:52 | 60.32409 | 24.96539 | 181 ft | 17 kts | 329° |
| 2026-05-07 16:52 | 60.32549 | 24.96375 | 188 ft | 25 kts | 331° |
| 2026-05-07 16:53 | 60.32697 | 24.96205 | 192 ft | 23 kts | 330° |
| 2026-05-07 16:53 | 60.32830 | 24.96048 | 195 ft | 21 kts | 329° |
| 2026-05-07 16:53 | 60.32957 | 24.95900 | 196 ft | 20 kts | 330° |
| 2026-05-07 16:53 | 60.33065 | 24.95768 | 197 ft | 9 kts | 319° |
| 2026-05-07 16:54 | 60.33123 | 24.95667 | 199 ft | 15 kts | 318° |
| 2026-05-07 16:54 | 60.33199 | 24.95506 | 203 ft | 14 kts | 294° |
| 2026-05-07 16:54 | 60.33176 | 24.95323 | 203 ft | 15 kts | 226° |
| 2026-05-07 16:54 | 60.33115 | 24.95166 | 205 ft | 14 kts | 249° |
| 2026-05-07 16:55 | 60.33109 | 24.94986 | 205 ft | 9 kts | 272° |
| 2026-05-07 16:55 | 60.33114 | 24.94781 | 203 ft | 12 kts | 274° |
| 2026-05-07 16:55 | 60.33116 | 24.94695 | 202 ft | 7 kts | 272° |
| 2026-05-07 16:55 | 60.33118 | 24.94519 | 202 ft | 15 kts | 272° |
| 2026-05-07 16:56 | 60.33081 | 24.94325 | 203 ft | 13 kts | 229° |
| 2026-05-07 16:56 | 60.33073 | 24.94308 | 203 ft | 0 kts | 229° |
| 2026-05-07 16:57 | 60.33039 | 24.94230 | 203 ft | 34 kts | 227° |
| 2026-05-07 16:57 | 60.32704 | 24.93498 | 197 ft | 105 kts | 227° |
| 2026-05-07 16:58 | 60.32075 | 24.92099 | 213 ft | 158 kts | 225° |
| 2026-05-07 16:58 | 60.31344 | 24.90416 | 737 ft | 164 kts | 225° |
| 2026-05-07 16:58 | 60.30541 | 24.88720 | 1423 ft | 167 kts | 232° |
| 2026-05-07 16:58 | 60.30025 | 24.86692 | 2080 ft | 171 kts | 260° |
| 2026-05-07 16:59 | 60.30180 | 24.84278 | 2565 ft | 185 kts | 290° |
| 2026-05-07 16:59 | 60.30724 | 24.81781 | 3067 ft | 202 kts | 296° |
| 2026-05-07 16:59 | 60.31353 | 24.79081 | 3553 ft | 221 kts | 294° |
| 2026-05-07 16:59 | 60.31724 | 24.75949 | 4137 ft | 239 kts | 276° |
| 2026-05-07 17:00 | 60.31724 | 24.72506 | 4621 ft | 254 kts | 270° |
| 2026-05-07 17:00 | 60.31640 | 24.68893 | 5271 ft | 264 kts | 269° |
| 2026-05-07 17:00 | 60.31538 | 24.65170 | 6100 ft | 267 kts | 269° |
| 2026-05-07 17:00 | 60.31440 | 24.61444 | 6925 ft | 270 kts | 269° |
| 2026-05-07 17:01 | 60.31345 | 24.57661 | 7803 ft | 272 kts | 269° |
| 2026-05-07 17:01 | 60.31252 | 24.53901 | 8671 ft | 272 kts | 269° |
| 2026-05-07 17:01 | 60.31159 | 24.50118 | 9533 ft | 273 kts | 268° |
| 2026-05-07 17:01 | 60.31061 | 24.46296 | 10383 ft | 275 kts | 268° |
| 2026-05-07 17:02 | 60.30959 | 24.42357 | 10929 ft | 288 kts | 268° |
| 2026-05-07 17:02 | 60.30850 | 24.38222 | 11317 ft | 306 kts | 268° |
| 2026-05-07 17:02 | 60.30733 | 24.33832 | 11701 ft | 322 kts | 267° |
| 2026-05-07 17:02 | 60.30609 | 24.29260 | 12408 ft | 327 kts | 267° |
| 2026-05-07 17:03 | 60.30486 | 24.24751 | 13265 ft | 327 kts | 267° |
| 2026-05-07 17:03 | 60.30359 | 24.20176 | 14098 ft | 327 kts | 267° |
| 2026-05-07 17:03 | 60.30232 | 24.15631 | 14897 ft | 328 kts | 267° |
| 2026-05-07 17:03 | 60.30101 | 24.11015 | 15670 ft | 330 kts | 267° |
| 2026-05-07 17:04 | 60.29970 | 24.06434 | 16416 ft | 331 kts | 267° |
| 2026-05-07 17:04 | 60.29821 | 24.01868 | 17117 ft | 333 kts | 265° |
| 2026-05-07 17:04 | 60.29540 | 23.97207 | 17824 ft | 335 kts | 262° |
| 2026-05-07 17:04 | 60.29113 | 23.92590 | 18519 ft | 337 kts | 259° |
| 2026-05-07 17:05 | 60.28622 | 23.87983 | 19186 ft | 338 kts | 259° |
| 2026-05-07 17:05 | 60.28128 | 23.83364 | 19838 ft | 340 kts | 259° |
| 2026-05-07 17:05 | 60.27627 | 23.78709 | 20282 ft | 346 kts | 259° |
| 2026-05-07 17:05 | 60.27105 | 23.73926 | 20737 ft | 352 kts | 259° |
| 2026-05-07 17:06 | 60.26579 | 23.69121 | 21300 ft | 354 kts | 259° |
| 2026-05-07 17:06 | 60.26050 | 23.64271 | 21885 ft | 355 kts | 259° |
| 2026-05-07 17:06 | 60.25513 | 23.59362 | 22447 ft | 357 kts | 258° |
| 2026-05-07 17:06 | 60.24981 | 23.54526 | 22961 ft | 359 kts | 258° |
| 2026-05-07 17:07 | 60.24435 | 23.49613 | 23482 ft | 361 kts | 258° |
| 2026-05-07 17:07 | 60.23882 | 23.44663 | 24053 ft | 360 kts | 258° |
| 2026-05-07 17:07 | 60.23330 | 23.39765 | 24628 ft | 360 kts | 258° |
| 2026-05-07 17:07 | 60.22782 | 23.34899 | 25052 ft | 362 kts | 257° |
| 2026-05-07 17:08 | 60.22220 | 23.29897 | 25460 ft | 365 kts | 258° |
| 2026-05-07 17:08 | 60.21662 | 23.24922 | 25858 ft | 368 kts | 258° |
| 2026-05-07 17:08 | 60.21095 | 23.19897 | 26257 ft | 370 kts | 257° |
| 2026-05-07 17:08 | 60.20520 | 23.14850 | 26654 ft | 372 kts | 258° |
| 2026-05-07 17:09 | 60.19944 | 23.09798 | 27010 ft | 375 kts | 257° |
| 2026-05-07 17:09 | 60.19360 | 23.04719 | 27356 ft | 378 kts | 258° |
| 2026-05-07 17:09 | 60.18763 | 22.99538 | 27685 ft | 380 kts | 258° |
| 2026-05-07 17:09 | 60.18166 | 22.94350 | 28014 ft | 383 kts | 258° |
| 2026-05-07 17:10 | 60.17569 | 22.89198 | 28347 ft | 384 kts | 258° |
| 2026-05-07 17:10 | 60.16954 | 22.83913 | 28671 ft | 386 kts | 258° |
| 2026-05-07 17:10 | 60.16347 | 22.78715 | 28954 ft | 389 kts | 258° |
| 2026-05-07 17:10 | 60.15719 | 22.73383 | 29210 ft | 392 kts | 258° |
| 2026-05-07 17:11 | 60.15091 | 22.68071 | 29481 ft | 394 kts | 258° |
| 2026-05-07 17:11 | 60.14464 | 22.62784 | 29851 ft | 393 kts | 258° |
| 2026-05-07 17:11 | 60.13828 | 22.57428 | 30254 ft | 391 kts | 258° |
| 2026-05-07 17:11 | 60.13202 | 22.52149 | 30643 ft | 390 kts | 258° |
| 2026-05-07 17:12 | 60.12576 | 22.46912 | 30984 ft | 389 kts | 258° |
| 2026-05-07 17:12 | 60.11941 | 22.41619 | 31294 ft | 389 kts | 258° |
| 2026-05-07 17:12 | 60.11308 | 22.36366 | 31574 ft | 389 kts | 258° |
| 2026-05-07 17:12 | 60.10669 | 22.31080 | 31850 ft | 390 kts | 257° |
| 2026-05-07 17:13 | 60.10035 | 22.25846 | 32119 ft | 390 kts | 257° |
| 2026-05-07 17:13 | 60.09398 | 22.20623 | 32452 ft | 389 kts | 257° |
| 2026-05-07 17:13 | 60.08751 | 22.15360 | 32647 ft | 391 kts | 257° |
| 2026-05-07 17:13 | 60.08096 | 22.10043 | 32805 ft | 394 kts | 257° |
| 2026-05-07 17:14 | 60.07445 | 22.04787 | 32982 ft | 395 kts | 257° |
| 2026-05-07 17:14 | 60.06779 | 21.99410 | 33174 ft | 396 kts | 257° |
| 2026-05-07 17:14 | 60.06118 | 21.94092 | 33339 ft | 397 kts | 257° |
| 2026-05-07 17:14 | 60.05448 | 21.88716 | 33493 ft | 399 kts | 257° |
| 2026-05-07 17:15 | 60.04780 | 21.83376 | 33659 ft | 399 kts | 257° |
| 2026-05-07 17:15 | 60.04110 | 21.78048 | 33852 ft | 399 kts | 257° |
| 2026-05-07 17:15 | 60.03426 | 21.72625 | 34000 ft | 399 kts | 257° |
| 2026-05-07 17:15 | 60.02748 | 21.67287 | 34103 ft | 401 kts | 257° |
| 2026-05-07 17:16 | 60.01383 | 21.56554 | 34122 ft | 401 kts | 257° |
| 2026-05-07 17:16 | 59.99999 | 21.45774 | 34127 ft | 401 kts | 257° |
| 2026-05-07 17:17 | 59.98591 | 21.34998 | 34128 ft | 402 kts | 257° |
| 2026-05-07 17:17 | 59.97110 | 21.24304 | 34117 ft | 402 kts | 256° |
| 2026-05-07 17:18 | 59.95618 | 21.13609 | 34127 ft | 401 kts | 256° |
| 2026-05-07 17:18 | 59.94117 | 21.02924 | 34126 ft | 401 kts | 256° |
| 2026-05-07 17:19 | 59.92612 | 20.92281 | 34134 ft | 400 kts | 256° |
| 2026-05-07 17:19 | 59.91093 | 20.81605 | 34149 ft | 400 kts | 255° |
| 2026-05-07 17:20 | 59.89566 | 20.70959 | 34142 ft | 399 kts | 256° |
| 2026-05-07 17:20 | 59.88789 | 20.65651 | 33923 ft | 403 kts | 256° |
| 2026-05-07 17:20 | 59.88009 | 20.60335 | 33354 ft | 404 kts | 256° |
| 2026-05-07 17:21 | 59.87223 | 20.54959 | 32764 ft | 405 kts | 257° |
| 2026-05-07 17:21 | 59.86449 | 20.49673 | 32121 ft | 406 kts | 257° |
| 2026-05-07 17:21 | 59.85656 | 20.44253 | 31399 ft | 405 kts | 257° |
| 2026-05-07 17:21 | 59.84874 | 20.38925 | 30680 ft | 404 kts | 257° |
| 2026-05-07 17:22 | 59.84093 | 20.33610 | 29960 ft | 402 kts | 256° |
| 2026-05-07 17:22 | 59.83320 | 20.28364 | 29269 ft | 399 kts | 256° |
| 2026-05-07 17:22 | 59.82537 | 20.23056 | 28563 ft | 398 kts | 256° |
| 2026-05-07 17:22 | 59.81765 | 20.17838 | 27870 ft | 396 kts | 256° |
| 2026-05-07 17:23 | 59.80992 | 20.12621 | 27208 ft | 393 kts | 256° |
| 2026-05-07 17:23 | 59.80222 | 20.07474 | 26766 ft | 386 kts | 256° |
| 2026-05-07 17:23 | 59.79467 | 20.02422 | 26346 ft | 379 kts | 256° |
| 2026-05-07 17:23 | 59.78722 | 19.97452 | 25933 ft | 375 kts | 256° |
| 2026-05-07 17:24 | 59.77985 | 19.92553 | 25510 ft | 372 kts | 256° |
| 2026-05-07 17:24 | 59.77254 | 19.87693 | 25097 ft | 369 kts | 256° |
| 2026-05-07 17:24 | 59.76521 | 19.82845 | 24700 ft | 366 kts | 256° |
| 2026-05-07 17:24 | 59.75785 | 19.78010 | 24266 ft | 364 kts | 256° |
| 2026-05-07 17:25 | 59.75061 | 19.73254 | 23818 ft | 361 kts | 256° |
| 2026-05-07 17:25 | 59.74379 | 19.68540 | 23348 ft | 358 kts | 258° |
| 2026-05-07 17:25 | 59.73728 | 19.63771 | 22880 ft | 355 kts | 258° |
| 2026-05-07 17:25 | 59.73097 | 19.59141 | 22394 ft | 346 kts | 258° |
| 2026-05-07 17:26 | 59.72483 | 19.54671 | 21945 ft | 331 kts | 258° |
| 2026-05-07 17:26 | 59.71888 | 19.50362 | 21494 ft | 314 kts | 258° |
| 2026-05-07 17:26 | 59.71319 | 19.46247 | 21064 ft | 310 kts | 258° |
| 2026-05-07 17:26 | 59.70754 | 19.42160 | 20643 ft | 309 kts | 258° |
| 2026-05-07 17:27 | 59.70190 | 19.38102 | 20229 ft | 307 kts | 258° |
| 2026-05-07 17:27 | 59.69623 | 19.34019 | 19800 ft | 307 kts | 258° |
| 2026-05-07 17:27 | 59.69060 | 19.29990 | 19374 ft | 306 kts | 257° |
| 2026-05-07 17:27 | 59.68494 | 19.25941 | 18952 ft | 303 kts | 258° |
| 2026-05-07 17:28 | 59.67937 | 19.21984 | 18550 ft | 301 kts | 258° |
| 2026-05-07 17:28 | 59.67374 | 19.17996 | 18134 ft | 300 kts | 258° |
| 2026-05-07 17:28 | 59.66811 | 19.14021 | 17699 ft | 298 kts | 258° |
| 2026-05-07 17:28 | 59.66260 | 19.10145 | 17013 ft | 295 kts | 258° |
| 2026-05-07 17:29 | 59.65715 | 19.06305 | 16156 ft | 295 kts | 258° |
| 2026-05-07 17:29 | 59.65160 | 19.02410 | 15292 ft | 294 kts | 257° |
| 2026-05-07 17:29 | 59.64610 | 18.98565 | 14508 ft | 290 kts | 258° |
| 2026-05-07 17:29 | 59.64075 | 18.94846 | 14117 ft | 275 kts | 258° |
| 2026-05-07 17:30 | 59.63559 | 18.91270 | 13867 ft | 262 kts | 258° |
| 2026-05-07 17:30 | 59.63077 | 18.87920 | 13528 ft | 255 kts | 258° |
| 2026-05-07 17:30 | 59.62596 | 18.84561 | 13049 ft | 254 kts | 258° |
| 2026-05-07 17:30 | 59.62116 | 18.81229 | 12591 ft | 253 kts | 258° |
| 2026-05-07 17:31 | 59.61633 | 18.77890 | 12140 ft | 251 kts | 258° |
| 2026-05-07 17:31 | 59.61155 | 18.74588 | 11666 ft | 250 kts | 258° |
| 2026-05-07 17:31 | 59.60683 | 18.71345 | 11189 ft | 250 kts | 258° |
| 2026-05-07 17:31 | 59.60206 | 18.68064 | 10698 ft | 248 kts | 258° |
| 2026-05-07 17:32 | 59.59726 | 18.64780 | 10176 ft | 248 kts | 257° |
| 2026-05-07 17:32 | 59.59248 | 18.61546 | 9657 ft | 247 kts | 257° |
| 2026-05-07 17:32 | 59.58763 | 18.58319 | 9148 ft | 246 kts | 257° |
| 2026-05-07 17:32 | 59.58281 | 18.55083 | 8630 ft | 246 kts | 257° |
| 2026-05-07 17:33 | 59.57801 | 18.51865 | 8171 ft | 243 kts | 257° |
| 2026-05-07 17:33 | 59.57333 | 18.48682 | 7995 ft | 243 kts | 257° |
| 2026-05-07 17:33 | 59.56867 | 18.45522 | 7648 ft | 241 kts | 258° |
| 2026-05-07 17:33 | 59.56650 | 18.42348 | 7134 ft | 234 kts | 283° |
| 2026-05-07 17:34 | 59.57306 | 18.39464 | 7013 ft | 232 kts | 311° |
| 2026-05-07 17:34 | 59.58413 | 18.37152 | 7007 ft | 235 kts | 317° |
| 2026-05-07 17:34 | 59.59612 | 18.34924 | 7034 ft | 236 kts | 317° |
| 2026-05-07 17:34 | 59.60814 | 18.32759 | 7030 ft | 237 kts | 322° |
| 2026-05-07 17:35 | 59.62255 | 18.31210 | 6929 ft | 233 kts | 338° |
| 2026-05-07 17:35 | 59.63773 | 18.30191 | 6572 ft | 235 kts | 342° |
| 2026-05-07 17:35 | 59.65344 | 18.29238 | 6169 ft | 237 kts | 342° |
| 2026-05-07 17:35 | 59.66918 | 18.28290 | 5843 ft | 237 kts | 343° |
| 2026-05-07 17:36 | 59.68475 | 18.27336 | 5510 ft | 236 kts | 343° |
| 2026-05-07 17:36 | 59.70040 | 18.26356 | 5178 ft | 236 kts | 343° |
| 2026-05-07 17:36 | 59.71590 | 18.25368 | 5021 ft | 233 kts | 343° |
| 2026-05-07 17:36 | 59.73126 | 18.24378 | 4863 ft | 231 kts | 343° |
| 2026-05-07 17:37 | 59.74585 | 18.23096 | 4453 ft | 236 kts | 328° |
| 2026-05-07 17:37 | 59.75921 | 18.21183 | 4112 ft | 236 kts | 324° |
| 2026-05-07 17:37 | 59.77194 | 18.19153 | 4031 ft | 237 kts | 323° |
| 2026-05-07 17:37 | 59.78475 | 18.17068 | 4006 ft | 237 kts | 322° |
| 2026-05-07 17:38 | 59.79716 | 18.15014 | 3748 ft | 236 kts | 319° |
| 2026-05-07 17:38 | 59.80638 | 18.12313 | 3330 ft | 243 kts | 289° |
| 2026-05-07 17:38 | 59.80986 | 18.08991 | 3037 ft | 244 kts | 279° |
| 2026-05-07 17:38 | 59.81179 | 18.05693 | 2693 ft | 245 kts | 273° |
| 2026-05-07 17:39 | 59.80861 | 18.02423 | 2522 ft | 244 kts | 240° |
| 2026-05-07 17:39 | 59.79729 | 17.99952 | 2507 ft | 239 kts | 208° |
| 2026-05-07 17:39 | 59.78223 | 17.99063 | 2483 ft | 218 kts | 176° |
| 2026-05-07 17:39 | 59.76769 | 17.99273 | 2420 ft | 205 kts | 171° |
| 2026-05-07 17:40 | 59.75362 | 17.99380 | 2196 ft | 204 kts | 178° |
| 2026-05-07 17:40 | 59.73940 | 17.99138 | 1927 ft | 205 kts | 184° |
| 2026-05-07 17:40 | 59.72553 | 17.98690 | 1699 ft | 198 kts | 186° |
| 2026-05-07 17:40 | 59.71251 | 17.98190 | 1453 ft | 184 kts | 186° |
| 2026-05-07 17:41 | 59.70025 | 17.97734 | 1193 ft | 171 kts | 186° |
| 2026-05-07 17:41 | 59.68925 | 17.97335 | 958 ft | 156 kts | 186° |
| 2026-05-07 17:41 | 59.67905 | 17.96972 | 731 ft | 141 kts | 186° |
| 2026-05-07 17:41 | 59.66972 | 17.96629 | 549 ft | 136 kts | 186° |
| 2026-05-07 17:42 | 59.66042 | 17.96303 | 418 ft | 136 kts | 186° |
| 2026-05-07 17:42 | 59.65109 | 17.95971 | 212 ft | 136 kts | 184° |
| 2026-05-07 17:42 | 59.64210 | 17.95654 | 121 ft | 121 kts | 191° |
| 2026-05-07 17:42 | 59.63556 | 17.95408 | 129 ft | 66 kts | 194° |
| 2026-05-07 17:43 | 59.63326 | 17.95178 | 134 ft | 22 kts | 224° |
| 2026-05-07 17:43 | 59.63251 | 17.95039 | 134 ft | 13 kts | 235° |
| 2026-05-07 17:43 | 59.63275 | 17.94904 | 132 ft | 8 kts | 335° |
| 2026-05-07 17:43 | 59.63344 | 17.94919 | 131 ft | 11 kts | 10° |
| 2026-05-07 17:44 | 59.63429 | 17.94951 | 129 ft | 13 kts | 12° |
| 2026-05-07 17:44 | 59.63531 | 17.94988 | 127 ft | 15 kts | 11° |
| 2026-05-07 17:44 | 59.63644 | 17.95029 | 124 ft | 17 kts | 11° |
| 2026-05-07 17:44 | 59.63763 | 17.95072 | 122 ft | 17 kts | 11° |
| 2026-05-07 17:45 | 59.63882 | 17.95115 | 120 ft | 17 kts | 11° |
| 2026-05-07 17:45 | 59.64007 | 17.95160 | 117 ft | 18 kts | 9° |
| 2026-05-07 17:45 | 59.64133 | 17.95207 | 115 ft | 18 kts | 11° |
| 2026-05-07 17:45 | 59.64173 | 17.95222 | 115 ft | 17 kts | 11° |